createdAt,value
2019-02-06T00:02:26.572Z,4.40
2019-02-06T00:04:54.678Z,4.50
2019-02-06T00:07:22.696Z,4.50
2019-02-06T00:09:50.849Z,4.50
2019-02-06T00:12:19.322Z,4.40
2019-02-06T00:14:47.406Z,4.40
2019-02-06T00:17:15.421Z,4.50
2019-02-06T00:19:43.513Z,4.50
2019-02-06T00:22:11.725Z,4.50
2019-02-06T00:24:39.763Z,4.50
2019-02-06T00:27:11.137Z,4.50
2019-02-06T00:29:43.037Z,4.60
2019-02-06T00:32:11.638Z,4.40
2019-02-06T00:34:40.012Z,4.50
2019-02-06T00:37:08.535Z,4.40
2019-02-06T00:39:39.949Z,4.40
2019-02-06T00:42:10.683Z,4.40
2019-02-06T00:44:39.030Z,4.40
2019-02-06T00:47:07.671Z,4.50
2019-02-06T00:49:35.615Z,4.50
2019-02-06T00:52:03.652Z,4.40
2019-02-06T00:54:31.564Z,4.40
2019-02-06T00:56:59.590Z,4.40
2019-02-06T00:59:27.569Z,4.50
2019-02-06T01:01:55.668Z,4.40
2019-02-06T01:04:23.651Z,4.50
2019-02-06T01:06:51.722Z,4.50
2019-02-06T01:09:19.840Z,4.50
2019-02-06T01:11:47.786Z,4.50
2019-02-06T01:14:15.788Z,4.50
2019-02-06T01:16:43.813Z,4.50
2019-02-06T01:19:11.692Z,4.50
2019-02-06T01:21:39.722Z,4.40
2019-02-06T01:24:09.801Z,4.50
2019-02-06T01:26:37.718Z,4.50
2019-02-06T01:29:05.975Z,4.40
2019-02-06T01:31:34.318Z,4.50
2019-02-06T01:34:02.339Z,4.50
2019-02-06T01:36:30.521Z,4.60
2019-02-06T01:38:58.459Z,4.70
2019-02-06T01:41:27.661Z,4.60
2019-02-06T01:43:55.626Z,4.60
2019-02-06T01:46:23.577Z,4.70
2019-02-06T01:48:51.543Z,4.70
2019-02-06T01:51:19.515Z,4.60
2019-02-06T01:53:47.433Z,4.60
2019-02-06T01:56:15.494Z,4.60
2019-02-06T01:58:43.471Z,4.50
2019-02-06T02:01:11.474Z,4.50
2019-02-06T02:03:39.418Z,4.60
2019-02-06T02:06:07.400Z,4.60
2019-02-06T02:08:38.427Z,4.60
2019-02-06T02:11:06.373Z,4.60
2019-02-06T02:13:34.361Z,4.60
2019-02-06T02:16:02.477Z,4.40
2019-02-06T02:18:30.476Z,4.50
2019-02-06T02:20:58.437Z,4.50
2019-02-06T02:23:26.513Z,4.50
2019-02-06T02:25:54.950Z,4.40
2019-02-06T02:28:22.835Z,4.50
2019-02-06T02:30:55.470Z,4.40
2019-02-06T02:33:23.602Z,4.30
2019-02-06T02:35:51.679Z,4.40
2019-02-06T02:38:19.679Z,4.50
2019-02-06T02:40:47.736Z,4.50
2019-02-06T02:43:15.703Z,4.50
2019-02-06T02:45:43.666Z,4.50
2019-02-06T02:48:11.628Z,4.50
2019-02-06T02:50:39.616Z,4.60
2019-02-06T02:53:07.684Z,4.50
2019-02-06T02:55:35.606Z,4.40
2019-02-06T02:58:04.598Z,4.40
2019-02-06T03:00:51.527Z,4.50
2019-02-06T03:03:44.534Z,4.50
2019-02-06T03:06:12.977Z,4.50
2019-02-06T03:08:41.041Z,4.40
2019-02-06T03:11:28.266Z,4.50
2019-02-06T03:13:56.276Z,4.60
2019-02-06T03:16:24.330Z,4.60
2019-02-06T03:18:52.345Z,4.60
2019-02-06T03:21:20.387Z,4.50
2019-02-06T03:23:48.404Z,4.60
2019-02-06T03:26:16.374Z,4.50
2019-02-06T03:28:44.388Z,4.50
2019-02-06T03:31:12.324Z,4.60
2019-02-06T03:33:40.403Z,4.60
2019-02-06T03:36:08.503Z,4.60
2019-02-06T03:38:36.429Z,4.60
2019-02-06T03:41:04.603Z,4.50
2019-02-06T03:43:32.577Z,4.50
2019-02-06T03:46:00.470Z,4.40
2019-02-06T03:48:28.371Z,4.40
2019-02-06T03:50:56.493Z,4.50
2019-02-06T03:53:24.635Z,4.60
2019-02-06T03:55:52.531Z,4.60
2019-02-06T03:58:20.614Z,4.60
2019-02-06T04:00:48.535Z,4.60
2019-02-06T04:03:16.453Z,4.70
2019-02-06T04:05:44.499Z,4.60
2019-02-06T04:08:12.529Z,4.70
2019-02-06T04:10:40.709Z,4.70
2019-02-06T04:13:08.659Z,4.70
2019-02-06T04:15:36.732Z,4.60
2019-02-06T04:18:04.815Z,4.60
2019-02-06T04:20:32.751Z,4.70
2019-02-06T04:23:00.706Z,4.60
2019-02-06T04:25:28.773Z,4.70
2019-02-06T04:27:56.742Z,4.70
2019-02-06T04:30:24.648Z,4.70
2019-02-06T04:32:52.567Z,4.80
2019-02-06T04:35:20.630Z,4.90
2019-02-06T04:37:48.636Z,4.70
2019-02-06T04:40:17.323Z,4.70
2019-02-06T04:42:45.545Z,4.70
2019-02-06T04:45:14.312Z,4.60
2019-02-06T04:47:42.278Z,4.60
2019-02-06T04:50:10.801Z,4.50
2019-02-06T04:52:38.826Z,4.50
2019-02-06T04:55:06.988Z,4.50
2019-02-06T04:57:35.024Z,4.20
2019-02-06T05:00:03.747Z,4.20
2019-02-06T05:02:31.763Z,4.10
2019-02-06T05:04:59.672Z,4.00
2019-02-06T05:07:27.638Z,4.00
2019-02-06T05:09:55.686Z,3.90
2019-02-06T05:12:23.576Z,3.90
2019-02-06T05:14:51.561Z,3.80
2019-02-06T05:17:19.854Z,3.80
2019-02-06T05:19:47.720Z,3.70
2019-02-06T05:22:15.632Z,3.60
2019-02-06T05:24:43.563Z,3.60
2019-02-06T05:27:11.439Z,3.60
2019-02-06T05:29:39.478Z,3.60
2019-02-06T05:32:07.579Z,3.60
2019-02-06T05:34:35.922Z,3.60
2019-02-06T05:37:03.853Z,3.60
2019-02-06T05:39:31.951Z,3.50
2019-02-06T05:41:59.877Z,3.30
2019-02-06T05:44:27.842Z,3.30
2019-02-06T05:46:55.771Z,3.30
2019-02-06T05:49:23.689Z,3.20
2019-02-06T05:51:51.897Z,3.20
2019-02-06T05:54:19.957Z,3.10
2019-02-06T05:56:49.819Z,3.10
2019-02-06T05:59:17.862Z,3.20
2019-02-06T06:01:45.775Z,3.20
2019-02-06T06:04:13.662Z,3.10
2019-02-06T06:06:41.719Z,3.10
2019-02-06T06:09:09.728Z,3.20
2019-02-06T06:11:37.932Z,3.30
2019-02-06T06:14:05.977Z,3.30
2019-02-06T06:16:34.147Z,3.30
2019-02-06T06:19:02.165Z,3.20
2019-02-06T06:21:30.068Z,3.10
2019-02-06T06:23:58.062Z,3.10
2019-02-06T06:26:26.155Z,3.10
2019-02-06T06:28:54.491Z,3.20
2019-02-06T06:31:22.691Z,3.20
2019-02-06T06:33:50.722Z,3.10
2019-02-06T06:36:18.686Z,3.00
2019-02-06T06:38:46.635Z,2.90
2019-02-06T06:41:14.558Z,2.90
2019-02-06T06:43:42.458Z,2.90
2019-02-06T06:46:10.911Z,2.90
2019-02-06T06:48:38.809Z,3.00
2019-02-06T06:51:06.827Z,2.90
2019-02-06T06:53:34.723Z,2.80
2019-02-06T06:56:02.812Z,2.80
2019-02-06T06:58:30.772Z,2.80
2019-02-06T07:00:58.789Z,2.80
2019-02-06T07:03:27.401Z,2.80
2019-02-06T07:05:55.479Z,2.80
2019-02-06T07:08:23.464Z,2.80
2019-02-06T07:10:51.334Z,2.90
2019-02-06T07:13:19.302Z,2.90
2019-02-06T07:15:47.405Z,2.90
2019-02-06T07:18:15.436Z,2.90
2019-02-06T07:20:43.800Z,3.00
2019-02-06T07:23:11.739Z,3.00
2019-02-06T07:25:39.668Z,3.00
2019-02-06T07:28:07.636Z,3.00
2019-02-06T07:30:36.827Z,2.90
2019-02-06T07:33:05.263Z,3.00
2019-02-06T07:35:33.218Z,2.90
2019-02-06T07:38:01.353Z,3.00
2019-02-06T07:40:29.442Z,3.00
2019-02-06T07:42:57.564Z,3.00
2019-02-06T07:45:25.699Z,3.10
2019-02-06T07:47:53.660Z,3.10
2019-02-06T07:50:25.812Z,3.10
2019-02-06T07:52:54.191Z,3.10
2019-02-06T07:55:22.200Z,3.10
2019-02-06T07:57:50.136Z,3.10
2019-02-06T08:00:37.272Z,3.10
2019-02-06T08:03:05.353Z,3.20
2019-02-06T08:05:33.397Z,3.20
2019-02-06T08:08:01.390Z,3.30
2019-02-06T08:10:32.737Z,3.40
2019-02-06T08:13:00.744Z,3.40
2019-02-06T08:15:28.768Z,3.40
2019-02-06T08:17:56.832Z,3.50
2019-02-06T08:23:46.862Z,3.40
2019-02-06T08:26:14.900Z,3.20
2019-02-06T08:28:42.951Z,3.20
2019-02-06T08:31:13.775Z,3.10
2019-02-06T08:33:41.769Z,3.20
2019-02-06T08:36:09.746Z,3.20
2019-02-06T08:38:47.449Z,3.20
2019-02-06T08:41:07.485Z,3.20
2019-02-06T08:43:35.860Z,3.30
2019-02-06T08:46:03.906Z,3.30
2019-02-06T08:48:31.867Z,3.40
2019-02-06T08:50:59.854Z,3.40
2019-02-06T08:53:27.848Z,3.50
2019-02-06T08:55:55.990Z,3.50
2019-02-06T08:58:23.997Z,3.50
2019-02-06T09:00:52.414Z,3.60
2019-02-06T09:03:20.459Z,3.60
2019-02-06T09:05:48.444Z,3.70
2019-02-06T09:08:16.443Z,3.70
2019-02-06T09:10:44.464Z,3.80
2019-02-06T09:13:12.530Z,3.90
2019-02-06T09:15:40.571Z,4.00
2019-02-06T09:18:08.883Z,4.10
2019-02-06T09:20:36.774Z,4.20
2019-02-06T09:23:05.117Z,4.40
2019-02-06T09:25:33.058Z,4.50
2019-02-06T09:28:01.070Z,4.60
2019-02-06T09:30:30.216Z,4.70
2019-02-06T09:32:58.234Z,4.80
2019-02-06T09:35:26.576Z,4.70
2019-02-06T09:37:54.559Z,4.70
2019-02-06T09:40:23.608Z,4.70
2019-02-06T09:42:51.647Z,4.80
2019-02-06T09:45:19.650Z,4.90
2019-02-06T09:47:47.610Z,5.00
2019-02-06T09:50:17.282Z,5.10
2019-02-06T09:52:45.487Z,5.20
2019-02-06T09:55:13.435Z,5.20
2019-02-06T09:57:41.807Z,5.30
2019-02-06T10:00:12.044Z,5.40
2019-02-06T10:02:40.058Z,5.60
2019-02-06T10:05:08.382Z,5.90
2019-02-06T10:07:36.688Z,6.10
2019-02-06T10:10:05.380Z,6.10
2019-02-06T10:12:33.271Z,6.30
2019-02-06T10:15:01.276Z,6.50
2019-02-06T10:17:29.244Z,6.60
2019-02-06T10:19:57.176Z,6.70
2019-02-06T10:22:25.078Z,6.70
2019-02-06T10:24:53.343Z,6.60
2019-02-06T10:27:23.998Z,6.60
2019-02-06T10:29:50.941Z,6.70
2019-02-06T10:32:18.887Z,6.90
2019-02-06T10:34:46.758Z,7.50
2019-02-06T10:37:14.821Z,7.80
2019-02-06T10:39:42.859Z,7.80
2019-02-06T10:42:11.315Z,7.60
2019-02-06T10:44:39.374Z,7.50
2019-02-06T10:47:07.452Z,7.80
2019-02-06T10:49:35.463Z,8.80
2019-02-06T10:52:03.459Z,10.50
2019-02-06T10:54:31.552Z,12.10
2019-02-06T10:56:59.612Z,13.40
2019-02-06T10:59:29.228Z,13.90
2019-02-06T11:01:57.271Z,14.40
2019-02-06T11:04:25.343Z,14.50
2019-02-06T11:06:53.327Z,14.40
2019-02-06T11:09:21.240Z,14.70
2019-02-06T11:11:49.368Z,14.50
2019-02-06T11:14:17.402Z,14.50
2019-02-06T11:16:45.587Z,14.20
2019-02-06T11:19:14.911Z,13.40
2019-02-06T11:21:42.981Z,13.20
2019-02-06T11:24:10.910Z,12.80
2019-02-06T11:26:38.962Z,12.70
2019-02-06T11:29:06.918Z,12.60
2019-02-06T11:31:34.952Z,12.30
2019-02-06T11:34:02.944Z,12.00
2019-02-06T11:36:30.993Z,11.30
2019-02-06T11:38:58.959Z,10.70
2019-02-06T11:41:26.969Z,10.60
2019-02-06T11:43:55.022Z,10.60
2019-02-06T11:46:23.016Z,10.50
2019-02-06T11:48:51.005Z,10.10
2019-02-06T11:51:18.972Z,9.90
2019-02-06T11:53:46.958Z,10.00
2019-02-06T11:56:14.882Z,9.90
2019-02-06T11:58:42.853Z,10.10
2019-02-06T12:01:18.579Z,9.90
2019-02-06T12:03:46.670Z,9.80
2019-02-06T12:06:14.761Z,9.70
2019-02-06T12:08:42.903Z,9.40
2019-02-06T12:11:13.715Z,9.30
2019-02-06T12:13:41.676Z,9.10
2019-02-06T12:16:09.635Z,8.80
2019-02-06T12:18:37.557Z,8.60
2019-02-06T12:21:05.475Z,8.60
2019-02-06T12:23:33.437Z,8.70
2019-02-06T12:26:01.435Z,8.80
2019-02-06T12:28:29.376Z,8.80
2019-02-06T12:30:57.435Z,8.80
2019-02-06T12:33:25.399Z,8.90
2019-02-06T12:35:53.300Z,9.00
2019-02-06T12:38:21.312Z,9.10
2019-02-06T12:40:49.727Z,9.10
2019-02-06T12:43:17.796Z,9.00
2019-02-06T12:45:45.762Z,8.90
2019-02-06T12:48:13.711Z,8.90
2019-02-06T12:50:41.683Z,8.80
2019-02-06T12:53:09.725Z,8.80
2019-02-06T12:55:38.166Z,8.70
2019-02-06T12:58:06.608Z,8.60
2019-02-06T13:00:34.859Z,8.40
2019-02-06T13:03:02.865Z,8.40
2019-02-06T13:05:31.171Z,8.40
2019-02-06T13:07:59.288Z,8.30
2019-02-06T13:10:33.824Z,8.40
2019-02-06T13:12:57.037Z,8.50
2019-02-06T13:15:25.085Z,8.50
2019-02-06T13:17:53.362Z,8.60
2019-02-06T13:20:22.611Z,8.60
2019-02-06T13:22:50.614Z,8.50
2019-02-06T13:25:18.498Z,8.60
2019-02-06T13:27:46.580Z,8.50
2019-02-06T13:30:19.053Z,8.50
2019-02-06T13:32:47.565Z,8.50
2019-02-06T13:35:15.748Z,8.50
2019-02-06T13:37:43.644Z,8.50
2019-02-06T13:40:13.361Z,8.50
2019-02-06T13:42:41.430Z,8.50
2019-02-06T13:45:10.875Z,8.50
2019-02-06T13:47:38.894Z,8.50
2019-02-06T13:50:07.945Z,8.50
2019-02-06T13:52:55.314Z,8.60
2019-02-06T13:55:23.283Z,8.60
2019-02-06T13:57:51.276Z,8.70
2019-02-06T14:00:20.493Z,8.80
2019-02-06T14:02:48.773Z,8.60
2019-02-06T14:05:18.271Z,8.40
2019-02-06T14:07:46.438Z,8.40
2019-02-06T14:10:15.176Z,8.20
2019-02-06T14:12:43.129Z,8.10
2019-02-06T14:15:12.436Z,8.10
2019-02-06T14:17:40.595Z,8.00
2019-02-06T14:20:10.667Z,8.00
2019-02-06T14:22:38.567Z,7.80
2019-02-06T14:25:27.034Z,7.80
2019-02-06T14:27:57.616Z,7.70
2019-02-06T14:30:47.792Z,7.50
2019-02-06T14:33:29.286Z,7.30
2019-02-06T14:36:19.824Z,7.30
2019-02-06T14:39:05.773Z,7.20
2019-02-06T14:41:39.700Z,7.10
2019-02-06T14:44:14.055Z,7.00
2019-02-06T14:46:55.310Z,6.90
2019-02-06T14:49:45.543Z,6.90
2019-02-06T14:52:31.442Z,6.80
2019-02-06T14:55:11.998Z,6.80
2019-02-06T14:57:58.123Z,6.70
2019-02-06T15:00:36.556Z,6.60
2019-02-06T15:03:23.738Z,6.60
2019-02-06T15:06:09.863Z,6.50
2019-02-06T15:09:00.497Z,6.40
2019-02-06T15:11:44.264Z,6.40
2019-02-06T15:14:26.084Z,6.30
2019-02-06T15:17:16.312Z,6.30
2019-02-06T15:20:12.658Z,6.30
2019-02-06T15:22:58.482Z,6.20
2019-02-06T15:25:45.698Z,6.10
2019-02-06T15:28:26.891Z,6.10
2019-02-06T15:31:12.971Z,6.00
2019-02-06T15:33:59.176Z,6.00
2019-02-06T15:36:45.556Z,6.00
2019-02-06T15:39:37.517Z,5.80
2019-02-06T15:42:11.652Z,5.80
2019-02-06T15:44:46.527Z,5.70
2019-02-06T15:47:36.824Z,5.70
2019-02-06T15:50:26.450Z,5.70
2019-02-06T15:52:50.852Z,5.60
2019-02-06T15:55:39.179Z,5.60
2019-02-06T15:58:25.283Z,5.50
2019-02-06T16:01:01.488Z,5.50
2019-02-06T16:04:12.718Z,5.50
2019-02-06T16:06:59.993Z,5.50
2019-02-06T16:09:47.276Z,5.40
2019-02-06T16:12:25.432Z,5.30
2019-02-06T16:15:24.789Z,5.40
2019-02-06T16:17:55.908Z,5.40
2019-02-06T16:20:33.610Z,5.30
2019-02-06T16:23:08.337Z,5.30
2019-02-06T16:26:01.724Z,5.30
2019-02-06T16:28:48.028Z,5.20
2019-02-06T16:31:24.990Z,5.20
2019-02-06T16:34:12.188Z,5.20
2019-02-06T16:37:08.531Z,5.20
2019-02-06T16:40:07.723Z,5.20
2019-02-06T16:43:09.965Z,5.20
2019-02-06T16:46:09.068Z,5.20
2019-02-06T16:48:49.801Z,5.20
2019-02-06T16:51:23.708Z,5.10
2019-02-06T16:54:05.873Z,5.10
2019-02-06T16:56:53.117Z,5.10
2019-02-06T16:59:39.058Z,5.20
2019-02-06T17:02:21.932Z,5.20
2019-02-06T17:05:09.398Z,5.20
2019-02-06T17:07:58.246Z,5.20
2019-02-06T17:10:36.700Z,5.20
2019-02-06T17:13:26.754Z,5.20
2019-02-06T17:16:25.745Z,5.20
2019-02-06T17:19:19.259Z,5.20
2019-02-06T17:22:05.510Z,5.20
2019-02-06T17:24:53.176Z,5.20
2019-02-06T17:27:28.447Z,5.20
2019-02-06T17:30:00.920Z,5.20
2019-02-06T17:32:51.198Z,5.20
2019-02-06T17:35:47.583Z,5.20
2019-02-06T17:38:26.905Z,5.20
2019-02-06T17:41:23.059Z,5.20
2019-02-06T17:44:04.100Z,5.30
2019-02-06T17:46:51.362Z,5.20
2019-02-06T17:49:43.851Z,5.20
2019-02-06T17:52:31.012Z,5.30
2019-02-06T17:55:17.219Z,5.30
2019-02-06T17:57:45.864Z,5.30
2019-02-06T18:00:15.868Z,5.30
2019-02-06T18:02:44.034Z,5.30
2019-02-06T18:05:11.988Z,5.20
2019-02-06T18:07:39.891Z,5.20
2019-02-06T18:10:10.007Z,5.20
2019-02-06T18:12:38.548Z,5.10
2019-02-06T18:15:06.607Z,5.10
2019-02-06T18:17:34.611Z,5.10
2019-02-06T18:20:02.780Z,5.10
2019-02-06T18:22:30.745Z,5.20
2019-02-06T18:24:58.720Z,5.20
2019-02-06T18:27:26.692Z,5.20
2019-02-06T18:29:55.236Z,5.20
2019-02-06T18:32:23.394Z,5.10
2019-02-06T18:34:51.389Z,5.20
2019-02-06T18:37:19.540Z,5.30
2019-02-06T18:39:47.611Z,5.20
2019-02-06T18:42:15.708Z,5.30
2019-02-06T18:44:43.845Z,5.20
2019-02-06T18:47:12.023Z,5.20
2019-02-06T18:49:40.030Z,5.30
2019-02-06T18:52:08.320Z,5.30
2019-02-06T18:54:36.347Z,5.30
2019-02-06T18:57:04.633Z,5.40
2019-02-06T18:59:32.630Z,5.40
2019-02-06T19:02:00.656Z,5.30
2019-02-06T19:04:28.814Z,5.20
2019-02-06T19:06:56.957Z,5.30
2019-02-06T19:09:25.209Z,5.30
2019-02-06T19:11:53.271Z,5.30
2019-02-06T19:14:21.707Z,5.20
2019-02-06T19:16:50.676Z,5.30
2019-02-06T19:19:25.529Z,5.30
2019-02-06T19:21:48.347Z,5.30
2019-02-06T19:24:17.839Z,5.30
2019-02-06T19:26:46.014Z,5.30
2019-02-06T19:29:14.101Z,5.30
2019-02-06T19:31:42.462Z,5.40
2019-02-06T19:34:10.538Z,5.30
2019-02-06T19:36:38.631Z,5.40
2019-02-06T19:39:09.619Z,5.30
2019-02-06T19:41:37.642Z,5.30
2019-02-06T19:44:06.029Z,5.20
2019-02-06T19:46:34.147Z,5.20
2019-02-06T19:49:02.430Z,5.20
2019-02-06T19:51:30.584Z,5.30
2019-02-06T19:54:04.366Z,5.30
2019-02-06T19:56:36.642Z,5.30
2019-02-06T19:59:04.884Z,5.30
2019-02-06T20:01:32.968Z,5.20
2019-02-06T20:04:01.752Z,5.20
2019-02-06T20:06:31.182Z,5.10
2019-02-06T20:09:00.487Z,5.10
2019-02-06T20:11:28.974Z,5.10
2019-02-06T20:13:56.939Z,5.00
2019-02-06T20:16:25.046Z,5.00
2019-02-06T20:18:53.029Z,5.00
2019-02-06T20:21:21.055Z,5.00
2019-02-06T20:23:49.104Z,5.00
2019-02-06T20:26:17.480Z,4.90
2019-02-06T20:28:45.635Z,4.90
2019-02-06T20:31:13.964Z,4.90
2019-02-06T20:33:42.042Z,5.00
2019-02-06T20:36:10.283Z,5.00
2019-02-06T20:38:38.590Z,4.90
2019-02-06T20:41:06.645Z,4.90
2019-02-06T20:43:34.698Z,4.90
2019-02-06T20:46:04.175Z,4.90
2019-02-06T20:48:32.236Z,4.90
2019-02-06T20:51:00.267Z,4.80
2019-02-06T20:53:28.274Z,4.70
2019-02-06T20:55:56.669Z,4.70
2019-02-06T20:58:24.788Z,4.70
2019-02-06T21:00:55.158Z,4.70
2019-02-06T21:03:23.676Z,4.60
2019-02-06T21:05:53.191Z,4.60
2019-02-06T21:08:21.462Z,4.70
2019-02-06T21:10:49.576Z,4.60
2019-02-06T21:13:19.072Z,4.50
2019-02-06T21:15:47.528Z,4.50
2019-02-06T21:18:15.752Z,4.50
2019-02-06T21:20:47.127Z,4.50
2019-02-06T21:23:16.530Z,4.50
2019-02-06T21:25:50.310Z,4.50
2019-02-06T21:28:16.581Z,4.50
2019-02-06T21:30:46.838Z,4.60
2019-02-06T21:33:14.780Z,4.50
2019-02-06T21:35:45.754Z,4.50
2019-02-06T21:38:13.822Z,4.40
2019-02-06T21:40:43.705Z,4.40
2019-02-06T21:43:13.382Z,4.50
2019-02-06T21:45:41.556Z,4.50
2019-02-06T21:48:09.588Z,4.50
2019-02-06T21:50:38.023Z,4.50
2019-02-06T21:53:06.217Z,4.50
2019-02-06T21:55:36.089Z,4.60
2019-02-06T21:58:04.861Z,4.50
2019-02-06T22:00:34.376Z,4.60
2019-02-06T22:03:02.519Z,4.50
2019-02-06T22:05:31.109Z,4.50
2019-02-06T22:07:59.242Z,4.50
2019-02-06T22:10:27.188Z,4.50
2019-02-06T22:12:55.541Z,4.50
2019-02-06T22:15:24.480Z,4.50
2019-02-06T22:17:52.536Z,4.50
2019-02-06T22:20:20.413Z,4.40
2019-02-06T22:22:48.496Z,4.40
2019-02-06T22:25:16.653Z,4.40
2019-02-06T22:27:44.585Z,4.40
2019-02-06T22:30:14.371Z,4.40
2019-02-06T22:32:42.413Z,4.40
2019-02-06T22:35:12.083Z,4.40
2019-02-06T22:37:40.494Z,4.40
2019-02-06T22:40:09.834Z,4.40
2019-02-06T22:42:37.873Z,4.40
2019-02-06T22:45:07.046Z,4.40
2019-02-06T22:47:41.267Z,4.40
2019-02-06T22:50:10.147Z,4.40
2019-02-06T22:52:38.467Z,4.30
2019-02-06T22:55:06.945Z,4.30
2019-02-06T22:57:35.017Z,4.30
2019-02-06T23:00:03.595Z,4.40
2019-02-06T23:02:31.673Z,4.50
2019-02-06T23:04:59.687Z,4.50
2019-02-06T23:07:27.727Z,4.60
2019-02-06T23:09:55.790Z,4.60
2019-02-06T23:12:23.787Z,4.70
2019-02-06T23:14:51.769Z,4.70
2019-02-06T23:17:19.747Z,4.60
2019-02-06T23:19:47.701Z,4.70
2019-02-06T23:22:15.647Z,4.70
2019-02-06T23:24:43.994Z,4.70
2019-02-06T23:27:11.884Z,4.70
2019-02-06T23:29:39.874Z,4.70
2019-02-06T23:32:07.841Z,4.70
2019-02-06T23:34:35.787Z,4.80
2019-02-06T23:37:03.858Z,4.80
2019-02-06T23:39:31.805Z,4.90
2019-02-06T23:41:59.829Z,4.90
2019-02-06T23:44:29.145Z,5.00
2019-02-06T23:46:57.467Z,5.00
2019-02-06T23:49:25.744Z,5.10
2019-02-06T23:51:53.721Z,5.10
2019-02-06T23:54:21.802Z,5.00
2019-02-06T23:56:50.216Z,4.90
2019-02-06T23:59:18.131Z,4.80
